createdAt,value
2024-05-09T00:02:22.793Z,99.90
2024-05-09T00:04:52.883Z,99.90
2024-05-09T00:07:25.696Z,99.90
2024-05-09T00:09:55.526Z,99.90
2024-05-09T00:12:25.628Z,99.90
2024-05-09T00:14:55.527Z,99.90
2024-05-09T00:17:25.928Z,99.90
2024-05-09T00:19:56.159Z,99.90
2024-05-09T00:22:28.851Z,99.90
2024-05-09T00:24:58.711Z,99.90
2024-05-09T00:27:28.962Z,99.90
2024-05-09T00:29:58.826Z,99.90
2024-05-09T00:32:29.102Z,99.90
2024-05-09T00:34:59.162Z,99.90
2024-05-09T00:37:31.808Z,99.90
2024-05-09T00:40:01.665Z,99.90
2024-05-09T00:42:31.690Z,99.90
2024-05-09T00:45:01.454Z,99.90
2024-05-09T00:47:31.710Z,99.90
2024-05-09T00:50:02.418Z,99.90
2024-05-09T00:52:35.917Z,99.90
2024-05-09T00:55:05.815Z,99.90
2024-05-09T00:57:36.729Z,99.90
2024-05-09T01:00:12.175Z,99.90
2024-05-09T01:02:48.650Z,99.90
2024-05-09T01:05:19.047Z,99.90
2024-05-09T01:07:51.897Z,99.90
2024-05-09T01:10:27.980Z,99.90
2024-05-09T01:13:03.982Z,99.90
2024-05-09T01:15:34.256Z,99.90
2024-05-09T01:18:10.473Z,99.90
2024-05-09T01:20:44.044Z,99.90
2024-05-09T01:23:18.149Z,99.90
2024-05-09T01:25:48.470Z,99.90
2024-05-09T01:28:18.576Z,99.90
2024-05-09T01:30:48.480Z,99.90
2024-05-09T01:33:18.749Z,99.90
2024-05-09T01:35:48.718Z,99.90
2024-05-09T01:38:21.384Z,99.90
2024-05-09T01:40:51.575Z,99.90
2024-05-09T01:43:21.698Z,99.90
2024-05-09T01:45:51.536Z,99.90
2024-05-09T01:48:21.788Z,99.90
2024-05-09T01:50:51.855Z,99.90
2024-05-09T01:53:24.641Z,99.90
2024-05-09T01:55:54.570Z,99.90
2024-05-09T01:58:24.849Z,99.90
2024-05-09T02:00:56.729Z,99.90
2024-05-09T02:03:26.999Z,99.90
2024-05-09T02:05:56.970Z,99.90
2024-05-09T02:08:29.615Z,99.90
2024-05-09T02:10:59.700Z,99.90
2024-05-09T02:13:29.793Z,99.90
2024-05-09T02:15:59.636Z,99.90
2024-05-09T02:18:29.741Z,99.90
2024-05-09T02:20:59.902Z,99.90
2024-05-09T02:23:32.784Z,99.90
2024-05-09T02:26:02.730Z,99.90
2024-05-09T02:28:32.891Z,99.90
2024-05-09T02:31:02.772Z,99.90
2024-05-09T02:33:33.266Z,99.90
2024-05-09T02:36:00.763Z,99.90
2024-05-09T02:38:33.442Z,99.90
2024-05-09T02:41:00.875Z,99.90
2024-05-09T02:43:31.747Z,99.90
2024-05-09T02:45:59.228Z,99.90
2024-05-09T02:48:29.155Z,99.90
2024-05-09T02:50:56.626Z,99.90
2024-05-09T02:53:26.583Z,99.90
2024-05-09T02:55:56.540Z,99.90
2024-05-09T02:58:26.899Z,99.90
2024-05-09T03:00:54.203Z,99.90
2024-05-09T03:03:24.585Z,99.90
2024-05-09T03:05:52.345Z,99.90
2024-05-09T03:08:22.261Z,99.90
2024-05-09T03:10:49.711Z,99.90
2024-05-09T03:13:22.335Z,99.90
2024-05-09T03:15:50.608Z,99.90
2024-05-09T03:18:20.529Z,99.90
2024-05-09T03:20:48.118Z,99.90
2024-05-09T03:23:18.149Z,99.90
2024-05-09T03:25:45.538Z,99.90
2024-05-09T03:28:15.500Z,99.90
2024-05-09T03:30:45.374Z,99.90
2024-05-09T03:33:19.418Z,99.90
2024-05-09T03:35:48.258Z,99.90
2024-05-09T03:38:18.718Z,99.90
2024-05-09T03:40:50.236Z,99.90
2024-05-09T03:43:21.596Z,99.90
2024-05-09T03:45:54.124Z,99.90
2024-05-09T03:48:21.804Z,99.90
2024-05-09T03:50:51.897Z,99.90
2024-05-09T03:53:20.695Z,99.90
2024-05-09T03:55:50.678Z,99.90
2024-05-09T03:58:19.089Z,99.90
2024-05-09T04:00:49.250Z,99.90
2024-05-09T04:03:19.710Z,99.90
2024-05-09T04:05:50.869Z,99.90
2024-05-09T04:08:18.749Z,99.90
2024-05-09T04:10:48.756Z,99.90
2024-05-09T04:13:16.108Z,99.90
2024-05-09T04:15:46.488Z,99.90
2024-05-09T04:18:14.240Z,99.90
2024-05-09T04:20:46.854Z,99.90
2024-05-09T04:23:15.067Z,99.90
2024-05-09T04:25:46.924Z,99.90
2024-05-09T04:28:14.802Z,99.90
2024-05-09T04:30:44.811Z,99.90
2024-05-09T04:33:15.361Z,99.90
2024-05-09T04:35:49.577Z,99.90
2024-05-09T04:38:17.066Z,99.90
2024-05-09T04:40:47.140Z,99.90
2024-05-09T04:43:15.777Z,99.90
2024-05-09T04:45:46.180Z,99.90
2024-05-09T04:48:13.754Z,99.90
2024-05-09T04:50:44.178Z,99.90
2024-05-09T04:53:16.389Z,99.90
2024-05-09T04:55:46.663Z,99.90
2024-05-09T04:58:14.246Z,99.90
2024-05-09T05:00:45.966Z,99.90
2024-05-09T05:03:15.676Z,99.90
2024-05-09T05:05:47.072Z,99.90
2024-05-09T05:08:19.053Z,99.90
2024-05-09T05:10:50.309Z,99.90
2024-05-09T05:13:20.290Z,99.90
2024-05-09T05:15:53.584Z,99.90
2024-05-09T05:18:22.315Z,99.90
2024-05-09T05:20:52.616Z,99.90
2024-05-09T05:23:23.955Z,99.90
2024-05-09T05:25:57.200Z,99.90
2024-05-09T05:28:24.834Z,99.90
2024-05-09T05:30:54.635Z,99.90
2024-05-09T05:33:23.021Z,99.90
2024-05-09T05:35:53.383Z,99.90
2024-05-09T05:38:27.256Z,99.90
2024-05-09T05:40:58.512Z,99.90
2024-05-09T05:43:26.724Z,99.90
2024-05-09T05:45:56.543Z,99.90
2024-05-09T05:48:24.282Z,99.90
2024-05-09T05:50:54.400Z,99.90
2024-05-09T05:53:24.449Z,99.90
2024-05-09T05:55:54.540Z,99.90
2024-05-09T05:58:22.559Z,99.90
2024-05-09T06:00:54.984Z,99.90
2024-05-09T06:03:22.452Z,99.90
2024-05-09T06:05:52.376Z,99.90
2024-05-09T06:08:20.076Z,99.90
2024-05-09T06:10:52.635Z,99.90
2024-05-09T06:13:20.662Z,99.90
2024-05-09T06:15:50.423Z,99.90
2024-05-09T06:18:18.117Z,99.90
2024-05-09T06:20:48.418Z,99.90
2024-05-09T06:23:15.864Z,99.90
2024-05-09T06:25:45.733Z,99.90
2024-05-09T06:28:15.887Z,99.90
2024-05-09T06:30:45.793Z,99.90
2024-05-09T06:33:15.235Z,99.90
2024-05-09T06:35:46.913Z,99.90
2024-05-09T06:38:14.611Z,99.90
2024-05-09T06:40:44.985Z,99.90
2024-05-09T06:43:17.936Z,99.90
2024-05-09T06:45:49.574Z,99.90
2024-05-09T06:48:19.293Z,99.90
2024-05-09T06:50:50.136Z,99.90
2024-05-09T06:53:20.500Z,99.90
2024-05-09T06:55:50.498Z,99.90
2024-05-09T06:58:20.440Z,99.90
2024-05-09T07:00:50.383Z,99.90
2024-05-09T07:03:19.197Z,99.90
2024-05-09T07:05:50.402Z,99.90
2024-05-09T07:08:17.962Z,99.90
2024-05-09T07:10:48.122Z,99.90
2024-05-09T07:13:16.124Z,99.90
2024-05-09T07:15:48.566Z,99.90
2024-05-09T07:18:18.482Z,99.90
2024-05-09T07:20:50.697Z,99.90
2024-05-09T07:23:18.856Z,99.90
2024-05-09T07:25:48.972Z,99.90
2024-05-09T07:28:18.163Z,99.90
2024-05-09T07:30:50.832Z,98.90
2024-05-09T07:33:18.752Z,98.00
2024-05-09T07:35:49.145Z,96.70
2024-05-09T07:38:16.715Z,95.50
2024-05-09T07:40:46.764Z,94.00
2024-05-09T07:43:15.277Z,93.40
2024-05-09T07:45:52.023Z,91.80
2024-05-09T07:53:39.964Z,90.20
2024-05-09T07:56:15.413Z,89.80
2024-05-09T07:58:44.085Z,87.90
2024-05-09T08:01:13.954Z,84.80
2024-05-09T08:03:45.068Z,82.70
2024-05-09T08:06:15.340Z,81.60
2024-05-09T08:08:42.810Z,81.40
2024-05-09T08:11:12.776Z,80.40
2024-05-09T08:13:40.136Z,79.90
2024-05-09T08:16:12.564Z,78.40
2024-05-09T08:18:40.554Z,77.70
2024-05-09T08:21:13.217Z,76.60
2024-05-09T08:23:40.517Z,75.30
2024-05-09T08:26:10.272Z,72.70
2024-05-09T08:28:39.009Z,71.00
2024-05-09T08:31:10.313Z,69.50
2024-05-09T08:33:43.591Z,68.50
2024-05-09T08:36:16.460Z,67.50
2024-05-09T08:38:43.964Z,66.30
2024-05-09T08:41:16.632Z,64.70
2024-05-09T08:43:44.955Z,63.30
2024-05-09T08:46:15.787Z,62.60
2024-05-09T08:48:45.795Z,61.50
2024-05-09T08:51:20.039Z,60.80
2024-05-09T08:53:47.349Z,58.10
2024-05-09T08:56:18.955Z,56.60
2024-05-09T09:01:39.305Z,54.90
2024-05-09T09:04:10.332Z,52.20
2024-05-09T09:06:43.259Z,52.70
2024-05-09T09:09:12.135Z,52.10
2024-05-09T09:11:42.054Z,51.80
2024-05-09T09:14:09.471Z,50.00
2024-05-09T09:16:39.765Z,48.60
2024-05-09T09:19:07.248Z,49.60
2024-05-09T09:21:37.357Z,49.00
2024-05-09T09:24:09.998Z,48.30
2024-05-09T09:26:40.648Z,47.20
2024-05-09T09:29:08.167Z,47.00
2024-05-09T09:31:39.475Z,45.60
2024-05-09T09:34:07.807Z,45.40
2024-05-09T09:36:41.506Z,45.00
2024-05-09T09:39:17.040Z,44.10
2024-05-09T09:41:49.471Z,41.60
2024-05-09T09:44:19.307Z,42.00
2024-05-09T09:46:49.956Z,42.50
2024-05-09T09:49:18.467Z,42.40
2024-05-09T09:51:49.068Z,42.40
2024-05-09T09:54:20.428Z,42.30
2024-05-09T09:56:51.152Z,42.30
2024-05-09T09:59:19.527Z,42.90
2024-05-09T10:01:49.618Z,44.00
2024-05-09T10:04:19.009Z,43.60
2024-05-09T10:06:53.196Z,42.50
2024-05-09T10:09:23.344Z,42.30
2024-05-09T10:11:59.976Z,40.90
2024-05-09T10:14:30.941Z,40.30
2024-05-09T10:17:07.303Z,40.10
2024-05-09T10:19:35.308Z,39.30
2024-05-09T10:22:06.592Z,38.20
2024-05-09T10:24:53.473Z,37.80
2024-05-09T10:27:29.642Z,37.10
2024-05-09T10:29:58.374Z,36.70
2024-05-09T10:32:30.664Z,34.90
2024-05-09T10:35:05.535Z,32.80
2024-05-09T10:37:36.551Z,33.40
2024-05-09T10:40:14.069Z,33.00
2024-05-09T10:42:47.857Z,30.80
2024-05-09T10:45:16.611Z,31.00
2024-05-09T10:47:46.589Z,31.70
2024-05-09T10:50:22.245Z,31.20
2024-05-09T10:52:58.147Z,30.10
2024-05-09T10:55:28.133Z,29.10
2024-05-09T10:57:58.249Z,28.40
2024-05-09T11:00:35.673Z,27.60
2024-05-09T11:03:07.100Z,27.00
2024-05-09T11:05:35.835Z,26.60
2024-05-09T11:08:06.215Z,26.10
2024-05-09T11:10:36.615Z,25.40
2024-05-09T11:13:07.918Z,25.10
2024-05-09T11:15:39.515Z,25.10
2024-05-09T11:18:09.668Z,25.30
2024-05-09T11:20:38.019Z,25.60
2024-05-09T11:23:08.484Z,24.80
2024-05-09T11:25:38.474Z,24.10
2024-05-09T11:28:10.124Z,24.30
2024-05-09T11:30:37.503Z,24.10
2024-05-09T11:33:08.017Z,23.80
2024-05-09T11:35:35.422Z,23.70
2024-05-09T11:38:05.454Z,24.20
2024-05-09T11:40:34.591Z,24.90
2024-05-09T11:43:08.056Z,25.40
2024-05-09T11:45:35.459Z,25.60
2024-05-09T11:48:06.822Z,26.10
2024-05-09T11:50:35.983Z,26.60
2024-05-09T11:53:06.263Z,27.00
2024-05-09T11:55:36.328Z,27.80
2024-05-09T11:58:10.605Z,27.50
2024-05-09T12:00:38.531Z,27.40
2024-05-09T12:03:08.834Z,27.60
2024-05-09T12:05:37.378Z,27.80
2024-05-09T12:08:07.999Z,28.20
2024-05-09T12:10:36.757Z,29.00
2024-05-09T12:13:10.094Z,29.20
2024-05-09T12:15:38.583Z,28.60
2024-05-09T12:18:09.618Z,27.80
2024-05-09T12:20:39.505Z,27.00
2024-05-09T12:23:11.254Z,26.90
2024-05-09T12:25:40.431Z,26.60
2024-05-09T12:28:12.991Z,26.90
2024-05-09T12:30:41.602Z,26.50
2024-05-09T12:33:13.261Z,27.10
2024-05-09T12:35:44.301Z,26.70
2024-05-09T12:38:17.378Z,26.50
2024-05-09T12:40:44.848Z,26.90
2024-05-09T12:43:17.471Z,27.50
2024-05-09T12:45:45.047Z,28.10
2024-05-09T12:48:15.040Z,28.70
2024-05-09T12:50:42.587Z,29.30
2024-05-09T12:53:12.719Z,28.80
2024-05-09T12:55:48.116Z,28.20
2024-05-09T12:58:26.648Z,28.20
2024-05-09T13:00:53.889Z,27.20
2024-05-09T13:03:24.273Z,26.70
2024-05-09T13:05:52.303Z,26.70
2024-05-09T13:08:23.002Z,26.30
2024-05-09T13:10:50.653Z,26.50
2024-05-09T13:13:20.724Z,27.00
2024-05-09T13:15:50.724Z,27.70
2024-05-09T13:18:21.067Z,28.10
2024-05-09T13:20:48.389Z,28.20
2024-05-09T13:23:19.632Z,28.80
2024-05-09T13:25:47.208Z,29.60
2024-05-09T13:28:17.258Z,28.80
2024-05-09T13:30:44.729Z,27.90
2024-05-09T13:33:17.448Z,27.20
2024-05-09T13:35:48.952Z,27.00
2024-05-09T13:38:22.027Z,26.00
2024-05-09T13:40:50.340Z,25.90
2024-05-09T13:43:22.284Z,26.50
2024-05-09T13:45:50.164Z,27.20
2024-05-09T13:48:23.712Z,27.90
2024-05-09T13:50:51.116Z,27.80
2024-05-09T13:53:20.951Z,27.90
2024-05-09T13:55:48.881Z,27.70
2024-05-09T13:58:19.093Z,27.10
2024-05-09T14:00:48.951Z,27.50
2024-05-09T14:03:22.768Z,27.20
2024-05-09T14:05:53.054Z,27.10
2024-05-09T14:08:22.436Z,26.50
2024-05-09T14:10:54.032Z,27.00
2024-05-09T14:13:21.616Z,27.10
2024-05-09T14:15:51.889Z,26.90
2024-05-09T14:18:24.865Z,26.80
2024-05-09T14:20:52.131Z,26.40
2024-05-09T14:23:22.029Z,26.60
2024-05-09T14:25:53.091Z,27.30
2024-05-09T14:28:26.162Z,28.20
2024-05-09T14:30:56.625Z,28.60
2024-05-09T14:33:30.735Z,29.70
2024-05-09T14:35:58.298Z,29.50
2024-05-09T14:38:30.323Z,30.50
2024-05-09T14:40:58.117Z,30.60
2024-05-09T14:43:29.490Z,30.60
2024-05-09T14:45:57.071Z,32.60
2024-05-09T14:48:31.542Z,33.30
2024-05-09T14:50:58.857Z,33.70
2024-05-09T14:53:28.670Z,33.90
2024-05-09T14:55:56.440Z,34.50
2024-05-09T14:58:26.467Z,35.40
2024-05-09T15:00:54.040Z,36.00
2024-05-09T15:03:24.164Z,36.80
2024-05-09T15:05:54.353Z,36.70
2024-05-09T15:08:24.871Z,37.30
2024-05-09T15:10:52.709Z,37.60
2024-05-09T15:13:23.838Z,38.20
2024-05-09T15:15:51.575Z,38.50
2024-05-09T15:18:22.117Z,39.20
2024-05-09T15:20:49.706Z,39.20
2024-05-09T15:23:22.695Z,39.30
2024-05-09T15:25:50.049Z,40.20
2024-05-09T15:28:20.140Z,40.80
2024-05-09T15:30:48.274Z,41.30
2024-05-09T15:33:18.350Z,42.20
2024-05-09T15:35:47.101Z,42.10
2024-05-09T15:38:18.574Z,42.70
2024-05-09T15:40:50.218Z,42.80
2024-05-09T15:43:20.505Z,43.40
2024-05-09T15:45:47.853Z,43.70
2024-05-09T15:48:17.931Z,43.60
2024-05-09T15:50:45.647Z,43.80
2024-05-09T15:53:15.697Z,43.70
2024-05-09T15:55:43.411Z,43.90
2024-05-09T15:58:16.964Z,44.40
2024-05-09T16:00:48.843Z,44.90
2024-05-09T16:03:18.358Z,45.00
2024-05-09T16:05:48.753Z,45.70
2024-05-09T16:08:16.754Z,46.60
2024-05-09T16:10:48.116Z,46.90
2024-05-09T16:13:19.797Z,47.30
2024-05-09T16:15:50.438Z,47.20
2024-05-09T16:18:17.978Z,47.60
2024-05-09T16:20:50.057Z,47.60
2024-05-09T16:23:18.024Z,48.90
2024-05-09T16:25:48.554Z,49.60
2024-05-09T16:28:19.874Z,50.40
2024-05-09T16:30:50.233Z,50.30
2024-05-09T16:33:21.052Z,51.10
2024-05-09T16:35:51.298Z,51.10
2024-05-09T16:38:19.080Z,51.40
2024-05-09T16:40:49.914Z,51.60
2024-05-09T16:43:20.128Z,51.70
2024-05-09T16:45:50.786Z,51.80
2024-05-09T16:48:18.366Z,52.50
2024-05-09T16:50:48.261Z,52.40
2024-05-09T16:53:15.834Z,52.40
2024-05-09T16:55:45.992Z,52.70
2024-05-09T16:58:13.696Z,53.40
2024-05-09T17:00:46.519Z,53.50
2024-05-09T17:03:15.524Z,54.50
2024-05-09T17:05:47.476Z,55.30
2024-05-09T17:08:16.897Z,56.20
2024-05-09T17:10:49.362Z,56.80
2024-05-09T17:13:20.375Z,57.20
2024-05-09T17:15:53.580Z,57.50
2024-05-09T17:18:23.770Z,57.40
2024-05-09T17:20:52.387Z,57.90
2024-05-09T17:23:22.489Z,58.30
2024-05-09T17:25:49.866Z,59.00
2024-05-09T17:28:20.449Z,59.50
2024-05-09T17:30:51.108Z,60.10
2024-05-09T17:33:21.136Z,60.70
2024-05-09T17:35:50.903Z,61.10
2024-05-09T17:38:22.955Z,61.90
2024-05-09T17:40:53.776Z,61.70
2024-05-09T17:43:21.676Z,62.20
2024-05-09T17:45:54.436Z,63.00
2024-05-09T17:48:22.528Z,63.80
2024-05-09T17:50:53.284Z,63.70
2024-05-09T17:53:20.716Z,63.50
2024-05-09T17:55:53.870Z,64.30
2024-05-09T17:58:21.589Z,65.10
2024-05-09T18:00:54.225Z,65.20
2024-05-09T18:03:23.507Z,65.30
2024-05-09T18:05:53.783Z,66.30
2024-05-09T18:08:21.140Z,66.90
2024-05-09T18:10:55.201Z,68.40
2024-05-09T18:13:23.149Z,69.30
2024-05-09T18:15:55.784Z,70.70
2024-05-09T18:18:23.651Z,72.10
2024-05-09T18:20:53.553Z,73.60
2024-05-09T18:23:21.009Z,75.90
2024-05-09T18:25:54.519Z,77.20
2024-05-09T18:28:22.568Z,79.10
2024-05-09T18:30:55.525Z,80.90
2024-05-09T18:33:24.592Z,82.70
2024-05-09T18:35:54.797Z,85.10
2024-05-09T18:38:25.617Z,87.70
2024-05-09T18:40:55.748Z,88.20
2024-05-09T18:43:28.900Z,90.40
2024-05-09T18:46:08.712Z,91.20
2024-05-09T18:48:36.191Z,91.80
2024-05-09T18:51:06.803Z,92.00
2024-05-09T18:53:34.230Z,92.80
2024-05-09T18:56:04.019Z,94.60
2024-05-09T18:58:31.322Z,94.60
2024-05-09T19:01:02.047Z,94.60
2024-05-09T19:03:32.348Z,95.60
2024-05-09T19:06:02.703Z,96.00
2024-05-09T19:08:30.136Z,97.00
2024-05-09T19:11:01.778Z,97.20
2024-05-09T19:13:29.449Z,97.80
2024-05-09T19:15:59.690Z,99.80
2024-05-09T19:18:28.531Z,99.90
2024-05-09T19:21:01.226Z,99.90
2024-05-09T19:23:29.022Z,99.90
2024-05-09T19:25:59.204Z,99.90
2024-05-09T19:28:26.842Z,99.90
2024-05-09T19:30:56.903Z,99.90
2024-05-09T19:33:24.517Z,99.90
2024-05-09T19:35:54.311Z,99.90
2024-05-09T19:38:24.315Z,99.90
2024-05-09T19:40:54.620Z,99.90
2024-05-09T19:43:22.105Z,99.90
2024-05-09T19:45:52.098Z,99.90
2024-05-09T19:48:21.061Z,99.90
2024-05-09T19:50:53.037Z,99.90
2024-05-09T19:53:25.059Z,99.90
2024-05-09T19:55:55.726Z,99.90
2024-05-09T19:58:23.243Z,99.90
2024-05-09T20:00:53.273Z,99.90
2024-05-09T20:03:20.833Z,99.90
2024-05-09T20:05:50.887Z,99.90
2024-05-09T20:08:18.347Z,99.90
2024-05-09T20:10:50.873Z,99.90
2024-05-09T20:13:18.471Z,99.90
2024-05-09T20:15:48.359Z,99.90
2024-05-09T20:18:17.958Z,99.90
2024-05-09T20:20:50.705Z,99.90
2024-05-09T20:23:19.460Z,99.90
2024-05-09T20:25:51.873Z,99.90
2024-05-09T20:28:19.188Z,99.90
2024-05-09T20:30:49.020Z,99.90
2024-05-09T20:33:16.943Z,99.90
2024-05-09T20:35:46.799Z,99.90
2024-05-09T20:38:14.279Z,99.90
2024-05-09T20:40:44.230Z,99.90
2024-05-09T20:43:14.260Z,99.90
2024-05-09T20:45:44.705Z,99.90
2024-05-09T20:48:12.224Z,99.90
2024-05-09T20:50:42.845Z,99.90
2024-05-09T20:53:11.720Z,99.90
2024-05-09T20:55:42.351Z,99.90
2024-05-09T20:58:10.513Z,99.90
2024-05-09T21:00:45.363Z,99.90
2024-05-09T21:03:16.168Z,99.90
2024-05-09T21:05:47.817Z,99.90
2024-05-09T21:08:16.001Z,99.90
2024-05-09T21:10:45.853Z,99.90
2024-05-09T21:13:13.387Z,99.90
2024-05-09T21:15:45.885Z,99.90
2024-05-09T21:18:13.519Z,99.90
2024-05-09T21:20:43.561Z,99.90
2024-05-09T21:23:10.997Z,99.90
2024-05-09T21:25:40.940Z,99.90
2024-05-09T21:28:08.361Z,99.90
2024-05-09T21:30:42.030Z,99.90
2024-05-09T21:33:14.678Z,99.90
2024-05-09T21:35:45.709Z,99.90
2024-05-09T21:38:14.752Z,99.90
2024-05-09T21:40:45.520Z,99.90
2024-05-09T21:43:13.250Z,99.90
2024-05-09T21:45:43.421Z,99.90
2024-05-09T21:48:13.805Z,99.90
2024-05-09T21:50:44.459Z,99.90
2024-05-09T21:53:12.642Z,99.90
2024-05-09T21:55:43.255Z,99.90
2024-05-09T21:58:11.711Z,99.90
2024-05-09T22:00:42.962Z,99.90
2024-05-09T22:03:14.453Z,99.90
2024-05-09T22:05:45.139Z,99.90
2024-05-09T22:08:13.052Z,99.90
2024-05-09T22:10:43.132Z,99.90
2024-05-09T22:13:10.562Z,99.90
2024-05-09T22:15:41.591Z,99.90
2024-05-09T22:18:10.333Z,99.90
2024-05-09T22:20:46.324Z,99.90
2024-05-09T22:23:15.192Z,99.90
2024-05-09T22:25:45.043Z,99.90
2024-05-09T22:28:15.377Z,99.90
2024-05-09T22:30:47.192Z,99.90
2024-05-09T22:33:15.659Z,99.90
2024-05-09T22:35:48.506Z,99.90
2024-05-09T22:38:15.995Z,99.90
2024-05-09T22:40:49.036Z,99.90
2024-05-09T22:43:18.583Z,99.90
2024-05-09T22:45:49.352Z,99.90
2024-05-09T22:48:16.938Z,99.90
2024-05-09T22:50:49.497Z,99.90
2024-05-09T22:53:16.865Z,99.90
2024-05-09T22:55:46.807Z,99.90
2024-05-09T22:58:14.378Z,99.90
2024-05-09T23:00:44.263Z,99.90
2024-05-09T23:03:11.875Z,99.90
2024-05-09T23:05:41.956Z,99.90
2024-05-09T23:08:11.859Z,99.90
2024-05-09T23:10:41.816Z,99.90
2024-05-09T23:13:09.468Z,99.90
2024-05-09T23:15:40.021Z,99.90
2024-05-09T23:18:09.123Z,99.90
2024-05-09T23:20:40.273Z,99.90
2024-05-09T23:23:08.828Z,99.90
2024-05-09T23:25:42.251Z,99.90
2024-05-09T23:28:12.886Z,99.90
2024-05-09T23:30:41.466Z,99.90
2024-05-09T23:33:15.015Z,99.90
2024-05-09T23:35:44.022Z,99.90
2024-05-09T23:38:15.471Z,99.90
2024-05-09T23:40:45.449Z,99.90
2024-05-09T23:43:16.459Z,99.90
2024-05-09T23:45:44.154Z,99.90
2024-05-09T23:48:14.129Z,99.90
2024-05-09T23:50:43.826Z,99.90
2024-05-09T23:53:14.317Z,99.90
2024-05-09T23:55:44.576Z,99.90
2024-05-09T23:58:15.520Z,99.90
